Airfield :
LOGIN :

Register | Disclaimer

   EN    FR    IT 

 










Legend :    VFR   Marginal VFR   IFR   Intensive IFR   Very Intensive IFR
Visi :
Ceiling :
>= 8 km
>= 3000ft
5 to 8 km
1000 to 3000 ft
1500m to 5 km
500 to 1000 ft
800 to 1500m
200 to 500 ft
< 800m
< 200 ft
Symbols :   Thunderstorms  Fog  Heavy snow  Heavy precipitations  Wind > 20 kt
SIGMETs :     Misc.  Thunderstorms  Icing  Turbulence  Mountain Waves  Volcanic Ashes






- Airport Elevation : 580 ft


LFOA - Avord

CURRENT METAR :
  • 190200Z AUTO 11005KT CAVOK 20/16 Q1014

EXPIRED METARs :
  • 190130Z AUTO 11004KT 9999 -RA NSC 20/16 Q1014
  • 190100Z AUTO 14006KT 9999 ///TCU 22/16 Q1015
  • 190030Z AUTO 20006KT CAVOK 22/15 Q1015
  • 190000Z AUTO 20008KT 9999 -RA NSC 23/15 Q1015
  • 182330Z AUTO 20010KT CAVOK 25/14 Q1015
  • 182300Z AUTO 21007KT CAVOK 25/14 Q1014

TAF TAF LFOA
Valid from the 18 at 15:00 until the 19 at 15:00 UTC


181400Z 1815/1915 15010G20KT CAVOK
TEMPO 1816/1821 13015G30KT 4000 SHRA BKN080TCU
BECMG 1821/1823 14010KT
PROB40
TEMPO 1901/1905 4000 SHRA BKN060TCU
TEMPO 1910/1915 SCT050TCU
PROB40
TEMPO 1912/1915 3000 TSRAGS BKN040CB



MET'MAP, your aeronautical weather chart ! - Copyright ORBIFLY December 2007 - Disclaimer

ORBIFLY MET'MAP TEAM :

Programming & Development : Alexandra Zaïnal
Concept & original design : Baudouin d'Aumeries
Assistance for programming : Marc-Olivier Méhu
Technical & hardware support : Manuel Goepfert

Contact : metmap@orbifly.com




SOURCES & CREDITS :

   NOAA